Terminal Aerodrome Forecast
Issued by NWS Bismarck, ND

Home | Current Version | Previous Version | Graphics & Text | Print | Product List | Glossary On
Versions: 1 2 3 4 5 6 7 8 9 10 11 12 13 14 15 16 17 18 19 20 21 22 23 24 25 26
600
FTUS43 KBIS 271140 AAB
TAFBIS
TAF AMD
KBIS 271140Z 2712/2812 00000KT 4SM BR FEW010 SCT130
      TEMPO 2712/2714 1SM BR BKN003
     FM271400 VRB03KT P6SM SCT015
     FM271700 02004KT P6SM BKN050
     FM280100 02004KT P6SM SCT050=

USA.gov is the U.S. government's official web portal to all federal, state and local government web resources and services.